createdAt,value
2023-05-03T00:00:16.327Z,81.24
2023-05-03T00:00:59.893Z,81.32
2023-05-03T00:01:41.226Z,80.79
2023-05-03T00:02:23.038Z,80.42
2023-05-03T00:03:04.837Z,80.36
2023-05-03T00:03:45.887Z,80.16
2023-05-03T00:04:26.986Z,80.12
2023-05-03T00:05:08.250Z,80.41
2023-05-03T00:05:49.607Z,80.11
2023-05-03T00:06:29.920Z,79.85
2023-05-03T00:07:10.974Z,80.06
2023-05-03T00:07:52.894Z,79.89
2023-05-03T00:08:32.972Z,79.80
2023-05-03T00:09:12.891Z,80.23
2023-05-03T00:09:53.931Z,79.92
2023-05-03T00:10:33.868Z,79.98
2023-05-03T00:11:28.871Z,79.98
2023-05-03T00:12:22.867Z,79.84
2023-05-03T00:13:11.875Z,79.78
2023-05-03T00:13:45.951Z,79.72
2023-05-03T00:14:32.872Z,79.57
2023-05-03T00:15:07.107Z,79.79
2023-05-03T00:15:53.942Z,79.73
2023-05-03T00:16:28.053Z,79.52
2023-05-03T00:17:14.929Z,79.67
2023-05-03T00:17:48.978Z,79.93
2023-05-03T00:18:36.926Z,79.98
2023-05-03T00:19:20.798Z,80.40
2023-05-03T00:20:15.862Z,79.77
2023-05-03T00:20:51.213Z,79.51
2023-05-03T00:21:37.958Z,79.63
2023-05-03T00:22:12.695Z,79.64
2023-05-03T00:22:59.851Z,79.64
2023-05-03T00:23:48.902Z,79.91
2023-05-03T00:24:22.660Z,79.70
2023-05-03T00:25:10.884Z,79.69
2023-05-03T00:25:44.668Z,79.72
2023-05-03T00:26:32.889Z,79.56
2023-05-03T00:27:06.737Z,79.35
2023-05-03T00:27:53.873Z,79.30
2023-05-03T00:28:27.842Z,79.04
2023-05-03T00:29:08.893Z,79.18
2023-05-03T00:29:42.946Z,78.82
2023-05-03T00:30:18.930Z,79.31
2023-05-03T00:30:59.894Z,79.54
2023-05-03T00:31:33.960Z,79.26
2023-05-03T00:32:08.940Z,79.36
2023-05-03T00:32:51.921Z,79.53
2023-05-03T00:33:25.969Z,79.41
2023-05-03T00:33:59.633Z,79.30
2023-05-03T00:34:39.901Z,79.32
2023-05-03T00:35:14.949Z,79.24
2023-05-03T00:35:48.644Z,79.27
2023-05-03T00:36:29.850Z,79.41
2023-05-03T00:37:03.924Z,79.58
2023-05-03T00:37:37.891Z,79.45
2023-05-03T00:38:21.827Z,79.43
2023-05-03T00:38:56.512Z,79.59
2023-05-03T00:39:34.178Z,79.43
2023-05-03T00:40:16.879Z,79.26
2023-05-03T00:40:50.938Z,79.19
2023-05-03T00:41:24.853Z,78.92
2023-05-03T00:42:07.035Z,78.96
2023-05-03T00:42:24.060Z,78.93
2023-05-03T00:42:57.636Z,78.88
2023-05-03T00:43:38.879Z,78.65
2023-05-03T00:44:12.940Z,78.73
2023-05-03T00:44:46.746Z,78.67
2023-05-03T00:45:26.881Z,78.71
2023-05-03T00:46:12.411Z,78.64
2023-05-03T00:46:50.642Z,78.89
2023-05-03T00:47:31.898Z,78.70
2023-05-03T00:48:06.322Z,78.53
2023-05-03T00:48:40.747Z,78.64
2023-05-03T00:49:21.811Z,78.42
2023-05-03T00:49:55.978Z,78.36
2023-05-03T00:50:36.917Z,78.28
2023-05-03T00:51:20.893Z,78.43
2023-05-03T00:52:01.812Z,78.77
2023-05-03T00:52:42.974Z,78.33
2023-05-03T00:53:23.844Z,78.08
2023-05-03T00:54:04.947Z,77.97
2023-05-03T00:54:44.830Z,78.21
2023-05-03T00:55:26.243Z,78.04
2023-05-03T00:56:07.850Z,77.90
2023-05-03T00:56:51.616Z,78.02
2023-05-03T00:57:35.823Z,77.91
2023-05-03T00:58:16.931Z,78.10
2023-05-03T00:59:00.856Z,77.86
2023-05-03T00:59:42.938Z,77.67
2023-05-03T01:01:29.842Z,77.23
2023-05-03T01:02:04.465Z,76.89
2023-05-03T01:02:38.876Z,76.75
2023-05-03T01:03:19.930Z,76.58
2023-05-03T01:03:55.114Z,76.67
2023-05-03T01:04:28.923Z,76.16
2023-05-03T01:05:13.828Z,76.14
2023-05-03T01:06:13.005Z,75.84
2023-05-03T01:07:29.854Z,75.90
2023-05-03T01:08:36.964Z,76.15
2023-05-03T01:09:37.819Z,76.21
2023-05-03T01:11:07.318Z,75.92
2023-05-03T01:11:59.886Z,76.08
2023-05-03T01:13:17.887Z,76.12
2023-05-03T01:14:23.827Z,76.87
2023-05-03T01:15:44.864Z,76.76
2023-05-03T01:16:53.815Z,77.17
2023-05-03T01:17:55.993Z,76.90
2023-05-03T01:18:47.842Z,76.73
2023-05-03T01:19:42.898Z,76.76
2023-05-03T01:20:34.829Z,76.89
2023-05-03T01:21:09.907Z,76.92
2023-05-03T01:22:10.834Z,76.75
2023-05-03T01:23:06.944Z,76.79
2023-05-03T01:24:03.822Z,76.68
2023-05-03T01:24:38.961Z,76.65
2023-05-03T01:25:25.780Z,76.75
2023-05-03T01:25:59.919Z,76.37
2023-05-03T01:26:46.804Z,76.80
2023-05-03T01:27:21.243Z,76.91
2023-05-03T01:28:07.857Z,76.37
2023-05-03T01:28:41.877Z,76.38
2023-05-03T01:29:28.828Z,76.28
2023-05-03T01:30:03.055Z,76.18
2023-05-03T01:30:50.777Z,76.09
2023-05-03T01:31:36.039Z,75.96
2023-05-03T01:32:29.820Z,75.73
2023-05-03T01:33:47.901Z,74.16
2023-05-03T01:34:35.810Z,74.22
2023-05-03T01:35:37.946Z,73.47
2023-05-03T01:36:34.804Z,72.70
2023-05-03T01:37:10.934Z,72.42
2023-05-03T01:37:58.772Z,72.59
2023-05-03T01:38:34.850Z,72.61
2023-05-03T01:39:37.870Z,72.79
2023-05-03T01:40:16.832Z,72.72
2023-05-03T01:41:07.770Z,72.78
2023-05-03T01:41:42.912Z,72.93
2023-05-03T01:42:30.774Z,72.22
2023-05-03T01:43:04.863Z,72.20
2023-05-03T01:43:52.782Z,71.88
2023-05-03T01:44:26.890Z,72.23
2023-05-03T01:45:09.813Z,72.01
2023-05-03T01:45:50.988Z,72.17
2023-05-03T01:46:32.077Z,71.80
2023-05-03T01:47:12.011Z,72.07
2023-05-03T01:47:51.791Z,72.11
2023-05-03T01:48:32.946Z,71.91
2023-05-03T01:49:12.782Z,71.35
2023-05-03T01:49:52.863Z,71.39
2023-05-03T01:50:33.778Z,71.41
2023-05-03T01:51:13.862Z,71.36
2023-05-03T01:51:53.809Z,71.18
2023-05-03T01:52:33.880Z,71.32
2023-05-03T01:53:13.769Z,71.20
2023-05-03T01:53:53.860Z,71.60
2023-05-03T01:54:34.820Z,71.09
2023-05-03T01:55:16.024Z,71.53
2023-05-03T01:55:56.771Z,71.58
2023-05-03T01:56:51.778Z,71.48
2023-05-03T01:57:45.760Z,71.21
2023-05-03T01:58:39.831Z,71.62
2023-05-03T01:59:33.801Z,71.46
2023-05-03T02:00:28.813Z,71.13
2023-05-03T02:01:15.818Z,71.48
2023-05-03T02:01:49.881Z,71.43
2023-05-03T02:02:52.554Z,71.58
2023-05-03T02:03:33.742Z,71.72
2023-05-03T02:04:07.890Z,71.01
2023-05-03T02:04:41.709Z,71.30
2023-05-03T02:05:22.795Z,70.98
2023-05-03T02:05:56.854Z,71.32
2023-05-03T02:06:36.812Z,71.49
2023-05-03T02:07:17.936Z,71.03
2023-05-03T02:07:57.781Z,71.18
2023-05-03T02:08:37.882Z,71.04
2023-05-03T02:09:18.751Z,70.86
2023-05-03T02:09:58.829Z,70.84
2023-05-03T02:10:38.752Z,71.04
2023-05-03T02:11:19.893Z,71.01
2023-05-03T02:11:59.820Z,70.64
2023-05-03T02:12:39.973Z,70.72
2023-05-03T02:13:19.766Z,70.48
2023-05-03T02:13:59.838Z,70.62
2023-05-03T02:14:39.744Z,70.62
2023-05-03T02:15:20.857Z,70.59
2023-05-03T02:16:01.737Z,70.76
2023-05-03T02:16:41.922Z,70.75
2023-05-03T02:17:22.795Z,71.18
2023-05-03T02:18:03.139Z,71.00
2023-05-03T02:18:43.766Z,70.75
2023-05-03T02:19:24.874Z,70.86
2023-05-03T02:20:04.921Z,71.02
2023-05-03T02:20:44.871Z,70.70
2023-05-03T02:21:24.745Z,70.80
2023-05-03T02:22:04.835Z,70.76
2023-05-03T02:22:44.836Z,70.88
2023-05-03T02:23:25.856Z,70.89
2023-05-03T02:24:06.750Z,71.00
2023-05-03T02:24:47.298Z,71.04
2023-05-03T02:25:27.877Z,71.22
2023-05-03T02:26:08.066Z,71.13
2023-05-03T02:26:47.757Z,71.08
2023-05-03T02:27:28.843Z,71.07
2023-05-03T02:28:09.773Z,70.81
2023-05-03T02:28:49.813Z,70.81
2023-05-03T02:29:29.736Z,70.84
2023-05-03T02:30:12.260Z,70.87
2023-05-03T02:30:52.803Z,70.96
2023-05-03T02:31:33.902Z,71.16
2023-05-03T02:32:13.786Z,71.12
2023-05-03T02:32:53.879Z,70.84
2023-05-03T02:33:33.788Z,71.00
2023-05-03T02:34:13.906Z,71.20
2023-05-03T02:34:55.740Z,71.53
2023-05-03T02:35:36.819Z,71.60
2023-05-03T02:36:16.732Z,71.27
2023-05-03T02:36:56.824Z,71.19
2023-05-03T02:37:36.756Z,71.06
2023-05-03T02:38:16.862Z,70.94
2023-05-03T02:38:57.801Z,71.13
2023-05-03T02:39:38.805Z,71.10
2023-05-03T02:40:19.715Z,71.01
2023-05-03T02:41:00.057Z,71.10
2023-05-03T02:41:39.743Z,71.29
2023-05-03T02:42:19.904Z,71.33
2023-05-03T02:42:59.696Z,71.57
2023-05-03T02:43:40.773Z,71.39
2023-05-03T02:44:27.740Z,71.13
2023-05-03T02:45:01.847Z,71.66
2023-05-03T02:45:50.737Z,71.84
2023-05-03T02:46:24.845Z,71.45
2023-05-03T02:47:11.704Z,71.62
2023-05-03T02:47:45.871Z,71.67
2023-05-03T02:48:32.737Z,71.47
2023-05-03T02:49:07.208Z,71.16
2023-05-03T02:49:46.746Z,71.64
2023-05-03T02:50:27.340Z,71.92
2023-05-03T02:51:09.712Z,71.33
2023-05-03T02:51:49.820Z,71.27
2023-05-03T02:52:29.901Z,71.88
2023-05-03T02:53:09.786Z,71.65
2023-05-03T02:53:49.685Z,71.59
2023-05-03T02:54:29.868Z,71.87
2023-05-03T02:55:10.755Z,71.68
2023-05-03T02:55:51.038Z,71.85
2023-05-03T02:56:32.704Z,71.55
2023-05-03T02:57:12.855Z,71.68
2023-05-03T02:57:52.708Z,71.48
2023-05-03T02:58:32.868Z,71.64
2023-05-03T02:59:13.711Z,71.59
2023-05-03T02:59:53.854Z,71.51
2023-05-03T03:00:34.715Z,71.78
2023-05-03T03:01:14.906Z,72.04
2023-05-03T03:01:55.713Z,71.90
2023-05-03T03:02:35.996Z,72.06
2023-05-03T03:03:16.790Z,71.93
2023-05-03T03:03:56.858Z,71.95
2023-05-03T03:04:37.714Z,71.93
2023-05-03T03:05:17.798Z,72.42
2023-05-03T03:05:57.701Z,72.03
2023-05-03T03:06:37.934Z,71.83
2023-05-03T03:07:18.682Z,71.58
2023-05-03T03:07:58.759Z,71.35
2023-05-03T03:08:38.695Z,71.27
2023-05-03T03:09:18.777Z,71.10
2023-05-03T03:09:58.896Z,70.91
2023-05-03T03:10:38.800Z,71.05
2023-05-03T03:11:19.724Z,71.00
2023-05-03T03:11:59.808Z,71.15
2023-05-03T03:12:42.685Z,71.13
2023-05-03T03:13:22.773Z,71.17
2023-05-03T03:14:02.686Z,71.14
2023-05-03T03:14:45.591Z,71.06
2023-05-03T03:15:26.715Z,71.09
2023-05-03T03:16:06.836Z,71.64
2023-05-03T03:16:46.724Z,71.53
2023-05-03T03:17:26.859Z,71.55
2023-05-03T03:18:07.758Z,71.43
2023-05-03T03:18:47.814Z,71.51
2023-05-03T03:19:28.699Z,71.68
2023-05-03T03:20:11.586Z,71.69
2023-05-03T03:20:51.688Z,71.79
2023-05-03T03:21:32.673Z,71.77
2023-05-03T03:22:13.738Z,71.97
2023-05-03T03:22:53.786Z,71.69
2023-05-03T03:23:34.756Z,72.22
2023-05-03T03:24:28.735Z,71.71
2023-05-03T03:25:23.705Z,71.94
2023-05-03T03:26:17.691Z,71.85
2023-05-03T03:27:11.714Z,72.35
2023-05-03T03:27:52.666Z,72.02
2023-05-03T03:28:32.813Z,71.89
2023-05-03T03:29:13.676Z,71.91
2023-05-03T03:29:53.832Z,71.81
2023-05-03T03:30:33.684Z,72.09
2023-05-03T03:31:13.882Z,71.76
2023-05-03T03:31:54.731Z,71.93
2023-05-03T03:32:34.761Z,71.92
2023-05-03T03:33:08.823Z,71.99
2023-05-03T03:33:56.691Z,71.67
2023-05-03T03:34:30.989Z,71.46
2023-05-03T03:35:17.727Z,71.50
2023-05-03T03:35:51.762Z,71.50
2023-05-03T03:36:38.697Z,71.45
2023-05-03T03:37:12.755Z,71.27
2023-05-03T03:38:00.694Z,71.38
2023-05-03T03:38:34.748Z,71.45
2023-05-03T03:39:21.664Z,71.35
2023-05-03T03:39:56.382Z,71.12
2023-05-03T03:40:43.675Z,70.95
2023-05-03T03:41:17.850Z,71.07
2023-05-03T03:42:04.655Z,70.97
2023-05-03T03:42:38.764Z,70.95
2023-05-03T03:43:25.753Z,70.92
2023-05-03T03:43:59.752Z,70.98
2023-05-03T03:44:46.700Z,70.82
2023-05-03T03:45:20.764Z,71.08
2023-05-03T03:46:07.690Z,71.03
2023-05-03T03:46:41.776Z,70.78
2023-05-03T03:47:28.724Z,70.81
2023-05-03T03:48:02.849Z,70.50
2023-05-03T03:48:49.702Z,70.45
2023-05-03T03:49:23.747Z,70.55
2023-05-03T03:50:11.689Z,70.28
2023-05-03T03:50:45.763Z,70.30
2023-05-03T03:51:33.655Z,70.30
2023-05-03T03:52:07.842Z,70.33
2023-05-03T03:52:54.667Z,70.31
2023-05-03T03:53:28.721Z,70.65
2023-05-03T03:54:08.675Z,70.11
2023-05-03T03:54:48.780Z,70.16
2023-05-03T03:55:29.658Z,69.93
2023-05-03T03:56:09.836Z,69.90
2023-05-03T03:56:50.687Z,69.86
2023-05-03T03:57:31.630Z,69.69
2023-05-03T03:58:12.655Z,69.55
2023-05-03T03:58:52.739Z,69.78
2023-05-03T03:59:33.672Z,69.75
2023-05-03T04:00:14.868Z,69.88
2023-05-03T04:00:54.674Z,69.67
2023-05-03T04:01:34.758Z,69.76
2023-05-03T04:02:15.794Z,69.79
2023-05-03T04:02:55.784Z,69.69
2023-05-03T04:03:35.721Z,69.70
2023-05-03T04:04:16.832Z,69.75
2023-05-03T04:04:57.674Z,70.03
2023-05-03T04:05:37.756Z,70.15
2023-05-03T04:06:17.642Z,70.02
2023-05-03T04:06:57.788Z,70.34
2023-05-03T04:07:38.640Z,70.10
2023-05-03T04:08:18.710Z,69.96
2023-05-03T04:08:58.669Z,69.95
2023-05-03T04:09:38.750Z,70.09
2023-05-03T04:10:18.677Z,70.18
2023-05-03T04:10:58.751Z,70.09
2023-05-03T04:11:38.632Z,70.66
2023-05-03T04:12:18.742Z,70.11
2023-05-03T04:12:58.646Z,70.35
2023-05-03T04:13:38.740Z,70.56
2023-05-03T04:14:18.647Z,70.69
2023-05-03T04:14:58.757Z,70.79
2023-05-03T04:15:38.677Z,70.69
2023-05-03T04:16:18.844Z,70.83
2023-05-03T04:16:58.682Z,71.43
2023-05-03T04:17:38.975Z,71.36
2023-05-03T04:18:18.632Z,71.63
2023-05-03T04:18:58.747Z,71.44
2023-05-03T04:19:39.632Z,71.48
2023-05-03T04:20:20.019Z,71.26
2023-05-03T04:21:00.643Z,71.26
2023-05-03T04:21:40.739Z,71.74
2023-05-03T04:22:20.655Z,71.89
2023-05-03T04:23:00.741Z,71.80
2023-05-03T04:23:41.689Z,71.99
2023-05-03T04:24:22.837Z,71.90
2023-05-03T04:25:02.610Z,72.09
2023-05-03T04:25:46.685Z,72.02
2023-05-03T04:26:32.226Z,72.35
2023-05-03T04:27:14.690Z,71.96
2023-05-03T04:27:55.670Z,72.08
2023-05-03T04:28:35.737Z,72.23
2023-05-03T04:29:19.662Z,72.22
2023-05-03T04:29:59.933Z,72.30
2023-05-03T04:30:42.652Z,71.99
2023-05-03T04:31:22.847Z,72.25
2023-05-03T04:32:03.690Z,72.75
2023-05-03T04:32:43.797Z,72.99
2023-05-03T04:33:24.640Z,73.68
2023-05-03T04:34:04.701Z,73.11
2023-05-03T04:34:45.510Z,73.27
2023-05-03T04:35:26.843Z,73.48
2023-05-03T04:36:07.670Z,73.61
2023-05-03T04:36:49.067Z,73.20
2023-05-03T04:37:29.624Z,73.06
2023-05-03T04:38:09.800Z,73.00
2023-05-03T04:38:49.623Z,73.27
2023-05-03T04:39:29.710Z,73.39
2023-05-03T04:40:18.602Z,73.07
2023-05-03T04:40:58.712Z,72.87
2023-05-03T04:41:39.628Z,73.66
2023-05-03T04:42:20.541Z,73.79
2023-05-03T04:43:00.640Z,73.74
2023-05-03T04:43:40.770Z,73.69
2023-05-03T04:44:20.635Z,73.79
2023-05-03T04:45:04.092Z,73.74
2023-05-03T04:45:44.601Z,73.67
2023-05-03T04:46:24.866Z,73.66
2023-05-03T04:47:06.616Z,73.67
2023-05-03T04:47:47.086Z,73.38
2023-05-03T04:48:27.652Z,73.38
2023-05-03T04:49:07.705Z,73.35
2023-05-03T04:49:47.600Z,73.31
2023-05-03T04:50:27.731Z,73.08
2023-05-03T04:51:08.596Z,72.84
2023-05-03T04:51:48.726Z,72.85
2023-05-03T04:52:29.594Z,72.47
2023-05-03T04:53:09.720Z,72.65
2023-05-03T04:53:49.620Z,72.54
2023-05-03T04:54:29.716Z,72.49
2023-05-03T04:55:10.606Z,72.45
2023-05-03T04:55:51.087Z,72.72
2023-05-03T04:56:32.601Z,73.36
2023-05-03T04:57:12.695Z,72.74
2023-05-03T04:57:52.596Z,72.21
2023-05-03T04:58:32.691Z,72.16
2023-05-03T04:59:13.631Z,72.23
2023-05-03T04:59:54.143Z,72.23
2023-05-03T05:00:34.604Z,72.53
2023-05-03T05:01:14.753Z,72.58
2023-05-03T05:01:54.695Z,72.84
2023-05-03T05:02:36.577Z,72.73
2023-05-03T05:03:17.780Z,72.35
2023-05-03T05:03:57.976Z,71.51
2023-05-03T05:04:37.616Z,71.97
2023-05-03T05:05:18.192Z,72.01
2023-05-03T05:06:00.676Z,71.48
2023-05-03T05:06:40.744Z,71.43
2023-05-03T05:07:20.608Z,71.62
2023-05-03T05:08:00.810Z,71.91
2023-05-03T05:08:40.630Z,72.04
2023-05-03T05:09:34.743Z,72.23
2023-05-03T05:10:16.645Z,72.44
2023-05-03T05:10:56.699Z,72.12
2023-05-03T05:11:37.588Z,72.11
2023-05-03T05:12:18.699Z,71.70
2023-05-03T05:12:59.569Z,71.67
2023-05-03T05:13:39.672Z,71.67
2023-05-03T05:14:19.574Z,71.76
2023-05-03T05:14:59.868Z,71.53
2023-05-03T05:15:39.609Z,71.42
2023-05-03T05:16:20.094Z,70.66
2023-05-03T05:17:01.677Z,69.94
2023-05-03T05:17:45.016Z,69.27
2023-05-03T05:18:25.608Z,69.25
2023-05-03T05:19:05.897Z,69.66
2023-05-03T05:19:45.561Z,69.73
2023-05-03T05:20:25.709Z,70.22
2023-05-03T05:21:06.595Z,70.29
2023-05-03T05:21:46.693Z,70.62
2023-05-03T05:22:27.588Z,70.70
2023-05-03T05:23:07.666Z,70.50
2023-05-03T05:23:48.606Z,70.70
2023-05-03T05:24:28.710Z,70.23
2023-05-03T05:25:09.559Z,70.52
2023-05-03T05:25:49.846Z,70.31
2023-05-03T05:26:29.590Z,70.44
2023-05-03T05:27:09.678Z,70.61
2023-05-03T05:27:49.575Z,69.65
2023-05-03T05:28:29.670Z,68.11
2023-05-03T05:29:10.575Z,68.10
2023-05-03T05:29:50.715Z,68.15
2023-05-03T05:30:31.587Z,67.69
2023-05-03T05:31:11.717Z,67.99
2023-05-03T05:31:51.600Z,67.91
2023-05-03T05:32:31.704Z,68.30
2023-05-03T05:33:16.767Z,68.17
2023-05-03T05:33:58.871Z,67.77
2023-05-03T05:34:45.524Z,67.84
2023-05-03T05:35:25.777Z,67.84
2023-05-03T05:36:06.555Z,68.25
2023-05-03T05:36:46.765Z,68.35
2023-05-03T05:37:30.615Z,68.32
2023-05-03T05:38:13.688Z,67.67
2023-05-03T05:38:53.549Z,68.01
2023-05-03T05:39:33.654Z,68.39
2023-05-03T05:40:14.562Z,68.81
2023-05-03T05:40:54.672Z,69.48
2023-05-03T05:41:35.550Z,70.21
2023-05-03T05:42:15.929Z,70.64
2023-05-03T05:42:56.601Z,70.68
2023-05-03T05:43:36.822Z,70.85
2023-05-03T05:44:17.558Z,70.80
2023-05-03T05:45:00.750Z,71.16
2023-05-03T05:45:41.522Z,71.15
2023-05-03T05:46:23.682Z,71.06
2023-05-03T05:47:03.622Z,70.16
2023-05-03T05:47:43.851Z,70.04
2023-05-03T05:48:23.586Z,68.87
2023-05-03T05:49:06.626Z,68.30
2023-05-03T05:49:47.576Z,68.69
2023-05-03T05:50:27.767Z,68.57
2023-05-03T05:51:11.544Z,68.99
2023-05-03T05:51:51.607Z,69.65
2023-05-03T05:52:32.564Z,69.16
2023-05-03T05:53:15.698Z,69.80
2023-05-03T05:53:56.587Z,69.73
2023-05-03T05:54:36.637Z,70.00
2023-05-03T05:55:21.572Z,70.04
2023-05-03T05:56:01.672Z,70.25
2023-05-03T05:56:48.558Z,70.41
2023-05-03T05:57:22.313Z,70.43
2023-05-03T05:58:10.532Z,70.60
2023-05-03T05:58:44.281Z,69.85
2023-05-03T05:59:24.586Z,70.13
2023-05-03T05:59:58.638Z,69.88
2023-05-03T06:00:32.366Z,69.54
2023-05-03T06:01:13.567Z,69.44
2023-05-03T06:01:47.698Z,69.53
2023-05-03T06:02:54.291Z,69.27
2023-05-03T06:03:36.677Z,69.70
2023-05-03T06:04:12.803Z,70.06
2023-05-03T06:04:53.628Z,70.54
2023-05-03T06:05:34.668Z,69.88
2023-05-03T06:06:14.624Z,69.80
2023-05-03T06:06:54.732Z,69.77
2023-05-03T06:07:34.573Z,68.80
2023-05-03T06:08:14.615Z,68.84
2023-05-03T06:09:04.749Z,69.08
2023-05-03T06:09:50.775Z,69.02
2023-05-03T06:10:30.530Z,68.92
2023-05-03T06:11:14.103Z,69.26
2023-05-03T06:11:54.527Z,68.65
2023-05-03T06:12:34.631Z,68.53
2023-05-03T06:13:14.537Z,67.75
2023-05-03T06:13:56.601Z,67.62
2023-05-03T06:14:36.552Z,67.36
2023-05-03T06:15:17.653Z,66.84
2023-05-03T06:15:57.552Z,66.33
2023-05-03T06:16:39.797Z,66.46
2023-05-03T06:17:23.565Z,66.70
2023-05-03T06:18:04.706Z,66.75
2023-05-03T06:18:45.559Z,66.21
2023-05-03T06:19:28.661Z,66.13
2023-05-03T06:20:09.536Z,66.53
2023-05-03T06:20:49.761Z,66.57
2023-05-03T06:21:29.566Z,66.45
2023-05-03T06:22:11.358Z,64.76
2023-05-03T06:22:51.539Z,65.37
2023-05-03T06:23:33.369Z,65.25
2023-05-03T06:24:13.519Z,65.59
2023-05-03T06:24:53.622Z,65.07
2023-05-03T06:25:33.617Z,64.86
2023-05-03T06:26:17.450Z,64.07
2023-05-03T06:26:57.566Z,64.63
2023-05-03T06:27:38.423Z,63.69
2023-05-03T06:28:18.508Z,63.96
2023-05-03T06:29:00.767Z,63.79
2023-05-03T06:29:40.514Z,64.19
2023-05-03T06:30:23.575Z,64.07
2023-05-03T06:31:03.736Z,64.01
2023-05-03T06:31:43.677Z,63.51
2023-05-03T06:32:25.587Z,64.02
2023-05-03T06:33:05.823Z,63.53
2023-05-03T06:33:54.797Z,63.87
2023-05-03T06:34:44.309Z,63.09
2023-05-03T06:35:31.163Z,63.22
2023-05-03T06:36:13.015Z,63.14
2023-05-03T06:36:54.759Z,63.12
2023-05-03T06:37:42.581Z,63.49
2023-05-03T06:38:20.744Z,63.37
2023-05-03T06:39:20.024Z,63.60
2023-05-03T06:39:57.533Z,63.82
2023-05-03T06:40:48.540Z,63.92
2023-05-03T06:41:22.284Z,63.86
2023-05-03T06:42:10.539Z,63.53
2023-05-03T06:42:55.530Z,62.87
2023-05-03T06:43:42.643Z,62.02
2023-05-03T06:44:22.479Z,62.53
2023-05-03T06:45:02.614Z,62.38
2023-05-03T06:45:58.676Z,62.86
2023-05-03T06:46:34.727Z,62.65
2023-05-03T06:47:21.536Z,62.52
2023-05-03T06:48:02.578Z,62.60
2023-05-03T06:49:02.715Z,62.71
2023-05-03T06:50:10.945Z,62.57
2023-05-03T06:51:04.474Z,61.82
2023-05-03T06:52:02.727Z,59.92
2023-05-03T06:53:02.540Z,59.78
2023-05-03T06:53:56.517Z,59.33
2023-05-03T06:54:51.514Z,59.71
2023-05-03T06:56:05.525Z,58.83
2023-05-03T06:56:59.539Z,59.10
2023-05-03T06:57:55.517Z,58.92
2023-05-03T06:58:38.507Z,60.44
2023-05-03T06:59:18.613Z,60.81
2023-05-03T06:59:58.538Z,61.10
2023-05-03T07:00:41.705Z,60.80
2023-05-03T07:01:22.570Z,61.55
2023-05-03T07:02:02.747Z,61.68
2023-05-03T07:02:43.608Z,60.71
2023-05-03T07:03:23.723Z,59.84
2023-05-03T07:04:04.555Z,58.57
2023-05-03T07:04:44.768Z,58.60
2023-05-03T07:05:25.467Z,57.94
2023-05-03T07:06:06.988Z,57.09
2023-05-03T07:06:55.892Z,57.50
2023-05-03T07:07:36.622Z,57.63
2023-05-03T07:08:17.480Z,57.24
2023-05-03T07:08:58.761Z,57.31
2023-05-03T07:09:43.699Z,57.80
2023-05-03T07:10:25.429Z,57.14
2023-05-03T07:11:05.497Z,57.25
2023-05-03T07:11:50.285Z,57.14
2023-05-03T07:12:34.494Z,57.83
2023-05-03T07:13:14.662Z,58.37
2023-05-03T07:14:05.476Z,57.71
2023-05-03T07:14:53.547Z,57.95
2023-05-03T07:15:47.568Z,58.62
2023-05-03T07:16:41.470Z,57.72
2023-05-03T07:17:35.564Z,55.79
2023-05-03T07:18:32.491Z,54.99
2023-05-03T07:19:26.546Z,55.20
2023-05-03T07:20:14.551Z,55.77
2023-05-03T07:20:48.873Z,56.09
2023-05-03T07:21:36.586Z,56.51
2023-05-03T07:22:10.703Z,55.97
2023-05-03T07:22:58.479Z,56.10
2023-05-03T07:23:32.573Z,55.61
2023-05-03T07:24:19.553Z,55.55
2023-05-03T07:24:58.811Z,56.00
2023-05-03T07:25:40.549Z,55.68
2023-05-03T07:26:20.563Z,56.30
2023-05-03T07:27:01.476Z,55.56
2023-05-03T07:27:41.872Z,55.61
2023-05-03T07:28:23.487Z,55.76
2023-05-03T07:29:03.551Z,56.44
2023-05-03T07:29:44.488Z,55.87
2023-05-03T07:30:25.811Z,56.47
2023-05-03T07:31:06.524Z,56.87
2023-05-03T07:31:46.577Z,57.01
2023-05-03T07:32:28.517Z,57.07
2023-05-03T07:33:08.630Z,57.59
2023-05-03T07:33:50.588Z,57.80
2023-05-03T07:34:33.768Z,58.35
2023-05-03T07:35:14.450Z,58.44
2023-05-03T07:35:55.594Z,58.42
2023-05-03T07:36:35.469Z,58.08
2023-05-03T07:37:15.804Z,56.68
2023-05-03T07:37:56.442Z,57.53
2023-05-03T07:38:37.291Z,57.21
2023-05-03T07:39:18.467Z,57.03
2023-05-03T07:39:58.551Z,57.22
2023-05-03T07:40:39.480Z,57.20
2023-05-03T07:41:19.644Z,57.44
2023-05-03T07:42:00.533Z,57.39
2023-05-03T07:42:40.568Z,57.19
2023-05-03T07:43:23.454Z,57.26
2023-05-03T07:44:03.553Z,57.50
2023-05-03T07:44:44.463Z,57.30
2023-05-03T07:45:24.777Z,56.86
2023-05-03T07:46:05.434Z,56.90
2023-05-03T07:46:45.759Z,55.93
2023-05-03T07:47:26.986Z,56.19
2023-05-03T07:48:07.863Z,56.24
2023-05-03T07:48:47.436Z,56.31
2023-05-03T07:49:27.549Z,56.04
2023-05-03T07:50:08.507Z,56.02
2023-05-03T07:50:49.579Z,56.58
2023-05-03T07:51:30.756Z,56.68
2023-05-03T07:52:10.647Z,56.55
2023-05-03T07:52:51.483Z,56.92
2023-05-03T07:53:31.616Z,56.82
2023-05-03T07:54:12.480Z,57.10
2023-05-03T07:54:52.624Z,57.79
2023-05-03T07:55:33.460Z,58.08
2023-05-03T07:56:16.584Z,57.84
2023-05-03T07:56:57.430Z,56.68
2023-05-03T07:57:38.524Z,56.22
2023-05-03T07:58:31.355Z,55.31
2023-05-03T07:59:19.542Z,55.32
2023-05-03T07:59:59.431Z,55.37
2023-05-03T08:00:39.549Z,55.21
2023-05-03T08:01:20.419Z,54.90
2023-05-03T08:02:01.756Z,53.86
2023-05-03T08:02:43.553Z,53.00
2023-05-03T08:03:30.709Z,53.29
2023-05-03T08:04:24.854Z,53.93
2023-05-03T08:05:21.560Z,53.46
2023-05-03T08:06:15.453Z,53.75
2023-05-03T08:07:09.450Z,54.02
2023-05-03T08:08:04.440Z,54.34
2023-05-03T08:08:51.426Z,54.08
2023-05-03T08:09:25.621Z,53.99
2023-05-03T08:10:13.441Z,54.28
2023-05-03T08:10:47.666Z,54.46
2023-05-03T08:11:38.454Z,55.03
2023-05-03T08:12:12.739Z,54.83
2023-05-03T08:12:59.433Z,55.00
2023-05-03T08:13:33.515Z,54.82
2023-05-03T08:14:13.424Z,53.79
2023-05-03T08:14:53.612Z,54.40
2023-05-03T08:15:34.491Z,54.88
2023-05-03T08:16:14.646Z,54.94
2023-05-03T08:16:54.445Z,55.12
2023-05-03T08:17:37.704Z,56.27
2023-05-03T08:18:21.650Z,55.55
2023-05-03T08:19:04.802Z,56.20
2023-05-03T08:19:44.446Z,55.72
2023-05-03T08:20:27.227Z,54.81
2023-05-03T08:21:07.399Z,57.94
2023-05-03T08:21:47.739Z,56.58
2023-05-03T08:22:31.476Z,56.42
2023-05-03T08:23:12.542Z,55.44
2023-05-03T08:23:52.512Z,55.62
2023-05-03T08:24:34.002Z,56.05
2023-05-03T08:25:16.494Z,56.43
2023-05-03T08:25:56.717Z,56.10
2023-05-03T08:26:37.425Z,55.83
2023-05-03T08:27:19.288Z,55.80
2023-05-03T08:28:00.466Z,55.59
2023-05-03T08:28:40.848Z,55.74
2023-05-03T08:29:21.454Z,57.71
2023-05-03T08:30:02.761Z,56.83
2023-05-03T08:30:43.481Z,56.83
2023-05-03T08:31:23.611Z,54.64
2023-05-03T08:32:04.471Z,55.14
2023-05-03T08:32:44.659Z,55.17
2023-05-03T08:33:24.491Z,53.90
2023-05-03T08:34:05.184Z,54.21
2023-05-03T08:34:45.438Z,54.80
2023-05-03T08:35:28.063Z,55.51
2023-05-03T08:36:09.449Z,55.82
2023-05-03T08:36:49.489Z,57.68
2023-05-03T08:37:30.412Z,57.13
2023-05-03T08:38:10.511Z,55.59
2023-05-03T08:38:51.400Z,55.21
2023-05-03T08:39:32.538Z,54.49
2023-05-03T08:40:16.427Z,55.09
2023-05-03T08:40:58.498Z,55.99
2023-05-03T08:41:39.403Z,55.47
2023-05-03T08:42:19.559Z,54.29
2023-05-03T08:43:00.430Z,53.91
2023-05-03T08:43:44.617Z,54.47
2023-05-03T08:44:32.420Z,53.56
2023-05-03T08:45:15.964Z,54.61
2023-05-03T08:45:56.412Z,55.52
2023-05-03T08:46:38.274Z,55.81
2023-05-03T08:47:22.494Z,55.95
2023-05-03T08:48:04.508Z,55.85
2023-05-03T08:48:44.489Z,55.87
2023-05-03T08:49:25.601Z,55.70
2023-05-03T08:50:07.480Z,54.71
2023-05-03T08:50:47.631Z,55.21
2023-05-03T08:51:30.434Z,56.19
2023-05-03T08:52:12.481Z,55.59
2023-05-03T08:52:52.417Z,56.24
2023-05-03T08:53:32.557Z,57.09
2023-05-03T08:54:13.412Z,57.01
2023-05-03T08:54:56.197Z,56.11
2023-05-03T08:55:37.504Z,55.86
2023-05-03T08:56:42.523Z,56.30
2023-05-03T08:57:24.390Z,57.55
2023-05-03T08:58:17.423Z,56.72
2023-05-03T08:59:14.398Z,56.90
2023-05-03T09:00:08.448Z,57.33
2023-05-03T09:01:02.331Z,57.81
2023-05-03T09:01:57.455Z,57.94
2023-05-03T09:02:52.460Z,57.34
2023-05-03T09:03:41.460Z,59.28
2023-05-03T09:04:17.834Z,56.17
2023-05-03T09:05:05.475Z,55.61
2023-05-03T09:05:44.046Z,56.82